Inicio METAR Ruta Wind Satelite

Informe Meteorológico

Fecha: 2020/12/01 19:05:40 Local
2020.12.02 00:05 UTC


Estado: VENCIDO
Operación:
Neiva / Benito Salas, Colombia (SKNV) 02-58N 075-18W 443M
2020.09.30 1900 UTC
Wind: from the S (190 degrees) at 13 MPH (11 KT):0
Visibility: greater than 7 mile(s):0
Sky conditions: mostly cloudy
Weather: showers in the vicinity
Temperature: 86 F (30 C)
Dew Point: 62 F (17 C)
Relative Humidity: 45%
Pressure (altimeter): 29.89 in. Hg (1012 hPa)
ob: SKNV 301900Z 19011KT 9999 VCSH FEW040 BKN120 30/17 A2989 RMK VCSH/S
cycle: 19